Canadian, TX

8:50 AM CDT on September 28, 2016 (GMT -0500)
Hemphill County

Weather History for KHHF - December, 2012

Change the Weather History Date:

Tuesday, December 25, 2012

  Actual Average (KPPA) Record (KPPA)
Temperature  
Mean Temperature 22 °F -  
Max Temperature 30 °F 43 °F 65 °F (1977)
Min Temperature 14 °F 19 °F -1 °F (1983)
Degree Days  
Heating Degree Days 43    
Moisture  
Dew Point 14 °F    
Average Humidity 76    
Maximum Humidity 86    
Minimum Humidity 60    
Precipitation  
Precipitation 0.00 in - - ()
Sea Level Pressure  
Sea Level Pressure 30.09 in    
Wind  
Wind Speed 15 mph (North)    
Max Wind Speed 22 mph    
Max Gust Speed 32 mph    
Visibility 7 miles    
Events Snow    
Averages and records for this station are not official NWS values.
T = Trace of Precipitation, MM = Missing Value Source: NWS Daily Summary

Daily Weather History Graph

Daily Weather History Graph

Search for Another Location

Airport or City:

Trip Planner

Search our weather history database for the weather conditions in past years. The results will help you decide how hot, cold, wet, or windy it might be!

Date:

Astronomy

Dec. 25, 2012 Rise Set
Actual Time 7:50 AM CST 5:34 PM CST
Civil Twilight 7:21 AM CST 6:02 PM CST
Nautical Twilight 6:49 AM CST 6:34 PM CST
Astronomical Twilight 6:18 AM CST 7:05 PM CST
Moon 3:42 PM CST (12/25) 5:25 AM CST (12/25)
Length of Visible Light 10h 40m
Length of Day
9h 43m
Waxing Gibbous, 94% of the Moon is Illuminated
Dec 25
Waxing Gibbous
Dec 28
Full
Jan 4
Last Quarter
Jan 11
New
Jan 18
First Quarter

Hourly Weather History & Observations

Time (CST) Temp. Windchill Dew Point Humidity Pressure Visibility Wind Dir Wind Speed Gust Speed Precip Events Conditions
12:15 AM 30.2 °F 20.2 °F 17.6 °F 60% 29.84 in 10.0 mi East 12.7 mph 20.7 mph N/A   Overcast
12:35 AM 28.4 °F 18.5 °F 17.6 °F 64% 29.84 in 10.0 mi ENE 11.5 mph - N/A   Overcast
12:55 AM 28.4 °F 16.6 °F 17.6 °F 64% 29.84 in 10.0 mi ENE 16.1 mph 19.6 mph N/A   Mostly Cloudy
1:15 AM 28.4 °F 19.1 °F 17.6 °F 64% 29.84 in 10.0 mi ENE 10.4 mph 19.6 mph N/A   Mostly Cloudy
1:35 AM 26.6 °F 15.7 °F 17.6 °F 69% 29.85 in 10.0 mi NE 12.7 mph 20.7 mph N/A   Overcast
1:55 AM 26.6 °F 16.2 °F 15.8 °F 64% 29.87 in 10.0 mi NE 11.5 mph - N/A   Mostly Cloudy
2:15 AM 26.6 °F 17.5 °F 15.8 °F 64% 29.88 in 10.0 mi NE 9.2 mph - N/A   Overcast
2:35 AM 24.8 °F 13.4 °F 15.8 °F 69% 29.88 in 10.0 mi NE 12.7 mph 20.7 mph N/A   Overcast
2:55 AM 24.8 °F 12.9 °F 14.0 °F 64% 29.89 in 10.0 mi NE 13.8 mph 18.4 mph N/A   Overcast
3:15 AM 24.8 °F 14.6 °F 14.0 °F 64% 29.90 in 10.0 mi NE 10.4 mph 18.4 mph N/A   Overcast
3:35 AM 24.8 °F 13.4 °F 14.0 °F 64% 29.90 in 10.0 mi NNE 12.7 mph 21.9 mph N/A   Overcast
3:55 AM 23.0 °F 12.4 °F 14.0 °F 68% 29.91 in 10.0 mi NNE 10.4 mph 23.0 mph N/A   Overcast
4:15 AM 23.0 °F 11.7 °F 14.0 °F 68% 29.92 in 10.0 mi NNE 11.5 mph 24.2 mph N/A   Overcast
4:35 AM 23.0 °F 9.2 °F 14.0 °F 68% 29.93 in 10.0 mi NE 17.3 mph 24.2 mph N/A   Overcast
4:55 AM 23.0 °F 10.1 °F 14.0 °F 68% 29.94 in 10.0 mi NNE 15.0 mph 23.0 mph N/A   Overcast
5:15 AM 23.0 °F 8.3 °F 14.0 °F 68% 29.95 in 10.0 mi NNE 19.6 mph 24.2 mph N/A   Overcast
5:55 AM 23.0 °F 9.2 °F 14.0 °F 68% 29.96 in 5.0 mi North 17.3 mph 23.0 mph N/A Snow Light Snow
6:15 AM 21.2 °F 9.5 °F 17.6 °F 86% 29.97 in 2.0 mi NNE 11.5 mph - N/A Snow Light Snow
6:35 AM 21.2 °F 7.3 °F 17.6 °F 86% 29.98 in 4.0 mi North 16.1 mph 24.2 mph N/A Snow Light Snow
6:55 AM 21.2 °F 6.8 °F 15.8 °F 80% 29.98 in 10.0 mi North 17.3 mph - N/A   Overcast
7:15 AM 21.2 °F 7.8 °F 15.8 °F 80% 29.99 in 7.0 mi North 15.0 mph 23.0 mph N/A Snow Light Snow
7:35 AM 19.4 °F 6.0 °F 15.8 °F 86% 30.00 in 1.5 mi North 13.8 mph 24.2 mph N/A Snow Light Snow
7:55 AM 19.4 °F 5.0 °F 15.8 °F 86% 30.00 in 1.8 mi North 16.1 mph 21.9 mph N/A Snow Light Snow
8:15 AM 19.4 °F 5.5 °F 15.8 °F 86% 30.01 in 1.2 mi North 15.0 mph 25.3 mph N/A Snow Light Snow
8:35 AM 19.4 °F 6.0 °F 14.0 °F 80% 30.02 in 1.5 mi North 13.8 mph 23.0 mph N/A Snow Light Snow
8:55 AM 19.4 °F 4.5 °F 14.0 °F 80% 30.03 in 1.8 mi North 17.3 mph 27.6 mph N/A Snow Light Snow
9:15 AM 19.4 °F 6.6 °F 14.0 °F 80% 30.04 in 1.8 mi North 12.7 mph 21.9 mph N/A Snow Light Snow
9:35 AM 19.4 °F 3.6 °F 14.0 °F 80% 30.04 in 3.0 mi North 19.6 mph 27.6 mph N/A Snow Light Snow
9:55 AM 19.4 °F 5.0 °F 14.0 °F 80% 30.07 in 2.5 mi North 16.1 mph 27.6 mph N/A Snow Light Snow
10:15 AM 19.4 °F 3.6 °F 14.0 °F 80% 30.09 in 2.5 mi North 19.6 mph 27.6 mph N/A Snow Light Snow
10:35 AM 19.4 °F 5.0 °F 14.0 °F 80% 30.10 in 1.2 mi North 16.1 mph 25.3 mph N/A Snow Light Snow
11:15 AM 19.4 °F 3.2 °F 14.0 °F 80% 30.12 in 0.8 mi North 20.7 mph 32.2 mph N/A Snow Light Snow
11:35 AM 19.4 °F 2.8 °F 15.8 °F 86% 30.12 in 0.8 mi North 21.9 mph 26.5 mph N/A Snow Light Snow
11:55 AM 19.4 °F 4.1 °F 14.0 °F 80% 30.12 in 1.2 mi North 18.4 mph 26.5 mph N/A Snow Light Snow
12:15 PM 19.4 °F 3.6 °F 14.0 °F 80% 30.13 in 1.0 mi North 19.6 mph 26.5 mph N/A Snow Light Snow
12:35 PM 19.4 °F 2.8 °F 14.0 °F 80% 30.14 in 0.8 mi North 21.9 mph 28.8 mph N/A Snow Light Snow
12:55 PM 19.4 °F 4.5 °F 14.0 °F 80% 30.14 in 0.8 mi North 17.3 mph 26.5 mph N/A Snow Light Snow
1:15 PM 19.4 °F 4.5 °F 14.0 °F 80% 30.14 in 1.2 mi North 17.3 mph 28.8 mph N/A Snow Light Snow
1:35 PM 21.2 °F 5.6 °F 15.8 °F 80% 30.13 in 2.0 mi North 20.7 mph 28.8 mph N/A Snow Light Snow
1:55 PM 21.2 °F 6.0 °F 15.8 °F 80% 30.13 in 3.0 mi North 19.6 mph 31.1 mph N/A Snow Light Snow
2:15 PM 21.2 °F 6.4 °F 14.0 °F 74% 30.14 in 5.0 mi North 18.4 mph 31.1 mph N/A Snow Light Snow
2:35 PM 21.2 °F 5.2 °F 15.8 °F 80% 30.15 in 7.0 mi North 21.9 mph 27.6 mph N/A   Overcast
2:55 PM 21.2 °F 6.4 °F 15.8 °F 80% 30.15 in 7.0 mi North 18.4 mph 31.1 mph N/A   Overcast
3:15 PM 21.2 °F 6.8 °F 17.6 °F 86% 30.15 in 3.0 mi North 17.3 mph 31.1 mph N/A   Haze
3:35 PM 21.2 °F 5.6 °F 17.6 °F 86% 30.16 in 1.8 mi North 20.7 mph 27.6 mph N/A Snow Light Snow
3:55 PM 21.2 °F 6.0 °F 15.8 °F 80% 30.16 in 7.0 mi North 19.6 mph 26.5 mph N/A   Overcast
4:15 PM 21.2 °F 5.6 °F 15.8 °F 80% 30.16 in 10.0 mi North 20.7 mph 27.6 mph N/A   Overcast
4:55 PM 21.2 °F 5.2 °F 15.8 °F 80% 30.18 in 10.0 mi North 21.9 mph 29.9 mph N/A   Overcast
5:15 PM 21.2 °F 6.0 °F 14.0 °F 74% 30.19 in 10.0 mi North 19.6 mph 27.6 mph N/A   Overcast
5:35 PM 21.2 °F 6.8 °F 14.0 °F 74% 30.19 in 10.0 mi North 17.3 mph 25.3 mph N/A   Overcast
5:55 PM 19.4 °F 5.5 °F 14.0 °F 80% 30.19 in 10.0 mi North 15.0 mph 26.5 mph N/A   Overcast
6:15 PM 19.4 °F 4.1 °F 14.0 °F 80% 30.20 in 10.0 mi North 18.4 mph 27.6 mph N/A   Overcast
6:35 PM 19.4 °F 5.0 °F 14.0 °F 80% 30.21 in 10.0 mi North 16.1 mph 25.3 mph N/A   Scattered Clouds
6:55 PM 19.4 °F 5.0 °F 12.2 °F 74% 30.22 in 10.0 mi North 16.1 mph 24.2 mph N/A   Scattered Clouds
7:15 PM 19.4 °F 4.5 °F 12.2 °F 74% 30.23 in 10.0 mi North 17.3 mph 24.2 mph N/A   Scattered Clouds
7:35 PM 17.6 °F 3.2 °F 12.2 °F 79% 30.24 in 10.0 mi North 15.0 mph 21.9 mph N/A   Mostly Cloudy
7:55 PM 17.6 °F 5.0 °F 10.4 °F 73% 30.25 in 10.0 mi North 11.5 mph 23.0 mph N/A   Mostly Cloudy
8:15 PM 17.6 °F 2.7 °F 10.4 °F 73% 30.25 in 10.0 mi North 16.1 mph 19.6 mph N/A   Clear
8:35 PM 17.6 °F 5.0 °F 10.4 °F 73% 30.26 in 10.0 mi NNW 11.5 mph - N/A   Clear
8:55 PM 17.6 °F 5.0 °F 10.4 °F 73% 30.27 in 10.0 mi North 11.5 mph - N/A   Clear
9:15 PM 15.8 °F 2.1 °F 10.4 °F 79% 30.28 in 10.0 mi NNW 12.7 mph 17.3 mph N/A   Scattered Clouds
9:35 PM 15.8 °F 2.7 °F 10.4 °F 79% 30.28 in 10.0 mi NNW 11.5 mph - N/A   Mostly Cloudy
10:15 PM 14.0 °F 1.2 °F 10.4 °F 86% 30.29 in 10.0 mi NNW 10.4 mph - N/A   Clear
10:35 PM 15.8 °F 2.1 °F 10.4 °F 79% 30.28 in 10.0 mi North 12.7 mph - N/A   Clear
10:55 PM 15.8 °F 2.7 °F 10.4 °F 79% 30.29 in 10.0 mi NNW 11.5 mph - N/A   Scattered Clouds
11:15 PM 15.8 °F 3.4 °F 10.4 °F 79% 30.29 in 10.0 mi North 10.4 mph 19.6 mph N/A   Mostly Cloudy
11:35 PM 14.0 °F 2.0 °F 8.6 °F 79% 30.29 in 10.0 mi North 9.2 mph - N/A   Mostly Cloudy
11:55 PM 14.0 °F 2.0 °F 8.6 °F 79% 30.29 in 10.0 mi North 9.2 mph - N/A   Scattered Clouds